sensor_id;sensor_type;location;lat;lon;timestamp;P1;durP1;ratioP1;P2;durP2;ratioP2
18206;SDS011;9229;52.354;20.886;2024-01-27T00:03:48;9.32;;;6.25;;
18206;SDS011;9229;52.354;20.886;2024-01-27T00:08:52;7.45;;;3.08;;
18206;SDS011;9229;52.354;20.886;2024-01-27T00:13:58;8.02;;;3.03;;
18206;SDS011;9229;52.354;20.886;2024-01-27T00:19:05;5.13;;;2.40;;
18206;SDS011;9229;52.354;20.886;2024-01-27T00:24:07;7.03;;;2.08;;
18206;SDS011;9229;52.354;20.886;2024-01-27T00:29:09;7.65;;;4.13;;
18206;SDS011;9229;52.354;20.886;2024-01-27T00:34:13;20.63;;;5.80;;
18206;SDS011;9229;52.354;20.886;2024-01-27T00:39:15;46.28;;;11.63;;
18206;SDS011;9229;52.354;20.886;2024-01-27T00:44:17;16.15;;;4.68;;
18206;SDS011;9229;52.354;20.886;2024-01-27T00:49:23;11.77;;;5.93;;
18206;SDS011;9229;52.354;20.886;2024-01-27T00:54:26;11.45;;;2.97;;
18206;SDS011;9229;52.354;20.886;2024-01-27T00:59:28;10.75;;;3.70;;
18206;SDS011;9229;52.354;20.886;2024-01-27T01:04:31;9.88;;;3.28;;
18206;SDS011;9229;52.354;20.886;2024-01-27T01:09:33;8.95;;;3.33;;
18206;SDS011;9229;52.354;20.886;2024-01-27T01:14:43;8.98;;;2.67;;
18206;SDS011;9229;52.354;20.886;2024-01-27T01:19:49;5.90;;;2.58;;
18206;SDS011;9229;52.354;20.886;2024-01-27T01:24:51;10.63;;;2.80;;
18206;SDS011;9229;52.354;20.886;2024-01-27T01:29:53;5.05;;;2.40;;
18206;SDS011;9229;52.354;20.886;2024-01-27T01:34:56;15.65;;;3.70;;
18206;SDS011;9229;52.354;20.886;2024-01-27T01:39:58;10.52;;;2.78;;
18206;SDS011;9229;52.354;20.886;2024-01-27T01:45:00;5.40;;;3.08;;
18206;SDS011;9229;52.354;20.886;2024-01-27T01:50:07;11.32;;;4.38;;
18206;SDS011;9229;52.354;20.886;2024-01-27T01:55:11;11.80;;;3.58;;
18206;SDS011;9229;52.354;20.886;2024-01-27T02:00:13;14.55;;;3.28;;
18206;SDS011;9229;52.354;20.886;2024-01-27T02:05:20;8.77;;;2.83;;
18206;SDS011;9229;52.354;20.886;2024-01-27T02:10:32;14.65;;;3.60;;
18206;SDS011;9229;52.354;20.886;2024-01-27T02:15:40;10.80;;;3.22;;
18206;SDS011;9229;52.354;20.886;2024-01-27T02:20:46;5.28;;;2.55;;
18206;SDS011;9229;52.354;20.886;2024-01-27T02:25:50;10.48;;;3.13;;
18206;SDS011;9229;52.354;20.886;2024-01-27T02:30:52;11.30;;;3.28;;
18206;SDS011;9229;52.354;20.886;2024-01-27T02:35:54;16.75;;;3.72;;
18206;SDS011;9229;52.354;20.886;2024-01-27T02:40:58;7.85;;;2.80;;
18206;SDS011;9229;52.354;20.886;2024-01-27T02:46:03;7.88;;;3.17;;
18206;SDS011;9229;52.354;20.886;2024-01-27T02:51:09;8.18;;;4.25;;
18206;SDS011;9229;52.354;20.886;2024-01-27T02:56:12;12.00;;;3.88;;
18206;SDS011;9229;52.354;20.886;2024-01-27T03:01:14;14.18;;;3.80;;
18206;SDS011;9229;52.354;20.886;2024-01-27T03:06:17;8.02;;;2.70;;
18206;SDS011;9229;52.354;20.886;2024-01-27T03:11:23;5.82;;;3.10;;
18206;SDS011;9229;52.354;20.886;2024-01-27T03:16:25;9.07;;;2.53;;
18206;SDS011;9229;52.354;20.886;2024-01-27T03:21:33;5.65;;;2.72;;
18206;SDS011;9229;52.354;20.886;2024-01-27T03:26:39;9.57;;;2.50;;
18206;SDS011;9229;52.354;20.886;2024-01-27T03:31:42;8.77;;;2.97;;
18206;SDS011;9229;52.354;20.886;2024-01-27T03:36:47;15.43;;;2.83;;
18206;SDS011;9229;52.354;20.886;2024-01-27T03:41:51;12.25;;;2.50;;
18206;SDS011;9229;52.354;20.886;2024-01-27T03:46:53;12.15;;;2.78;;
18206;SDS011;9229;52.354;20.886;2024-01-27T03:51:57;8.93;;;2.72;;
18206;SDS011;9229;52.354;20.886;2024-01-27T03:57:07;18.25;;;2.88;;
18206;SDS011;9229;52.354;20.886;2024-01-27T04:02:10;10.05;;;2.33;;
18206;SDS011;9229;52.354;20.886;2024-01-27T04:07:14;15.73;;;2.88;;
18206;SDS011;9229;52.354;20.886;2024-01-27T04:12:21;8.60;;;3.05;;
18206;SDS011;9229;52.354;20.886;2024-01-27T04:17:24;9.60;;;3.75;;
18206;SDS011;9229;52.354;20.886;2024-01-27T04:22:26;12.05;;;3.53;;
18206;SDS011;9229;52.354;20.886;2024-01-27T04:27:32;15.50;;;3.83;;
18206;SDS011;9229;52.354;20.886;2024-01-27T04:32:39;6.70;;;3.08;;
18206;SDS011;9229;52.354;20.886;2024-01-27T04:37:42;9.50;;;3.38;;
18206;SDS011;9229;52.354;20.886;2024-01-27T04:42:46;12.90;;;3.17;;
18206;SDS011;9229;52.354;20.886;2024-01-27T04:47:48;10.00;;;3.17;;
18206;SDS011;9229;52.354;20.886;2024-01-27T04:52:53;7.38;;;3.78;;
18206;SDS011;9229;52.354;20.886;2024-01-27T04:57:59;8.10;;;4.03;;
18206;SDS011;9229;52.354;20.886;2024-01-27T05:03:04;10.35;;;3.92;;
18206;SDS011;9229;52.354;20.886;2024-01-27T05:08:08;5.57;;;3.20;;
18206;SDS011;9229;52.354;20.886;2024-01-27T05:13:15;4.47;;;3.05;;
18206;SDS011;9229;52.354;20.886;2024-01-27T05:18:17;9.65;;;4.30;;
18206;SDS011;9229;52.354;20.886;2024-01-27T05:23:19;18.58;;;4.47;;
18206;SDS011;9229;52.354;20.886;2024-01-27T05:28:24;16.20;;;4.78;;
18206;SDS011;9229;52.354;20.886;2024-01-27T05:33:27;25.20;;;4.75;;
18206;SDS011;9229;52.354;20.886;2024-01-27T05:38:29;17.52;;;4.47;;
18206;SDS011;9229;52.354;20.886;2024-01-27T05:43:35;15.95;;;4.80;;
18206;SDS011;9229;52.354;20.886;2024-01-27T05:48:40;17.95;;;4.93;;
18206;SDS011;9229;52.354;20.886;2024-01-27T05:53:42;18.30;;;5.20;;
18206;SDS011;9229;52.354;20.886;2024-01-27T05:58:48;17.92;;;4.47;;
18206;SDS011;9229;52.354;20.886;2024-01-27T06:03:51;10.00;;;3.72;;
18206;SDS011;9229;52.354;20.886;2024-01-27T06:08:53;14.25;;;3.50;;
18206;SDS011;9229;52.354;20.886;2024-01-27T06:14:02;14.88;;;4.43;;
18206;SDS011;9229;52.354;20.886;2024-01-27T06:19:06;9.43;;;3.35;;
18206;SDS011;9229;52.354;20.886;2024-01-27T06:24:11;14.00;;;3.55;;
18206;SDS011;9229;52.354;20.886;2024-01-27T06:29:14;10.77;;;3.00;;
18206;SDS011;9229;52.354;20.886;2024-01-27T06:34:17;16.98;;;5.10;;
18206;SDS011;9229;52.354;20.886;2024-01-27T06:39:22;13.93;;;3.33;;
18206;SDS011;9229;52.354;20.886;2024-01-27T06:44:26;15.07;;;3.55;;
18206;SDS011;9229;52.354;20.886;2024-01-27T06:49:29;10.63;;;3.45;;
18206;SDS011;9229;52.354;20.886;2024-01-27T06:54:31;8.43;;;3.70;;
18206;SDS011;9229;52.354;20.886;2024-01-27T06:59:38;8.57;;;3.10;;
18206;SDS011;9229;52.354;20.886;2024-01-27T07:04:41;13.65;;;3.95;;
18206;SDS011;9229;52.354;20.886;2024-01-27T07:09:43;15.50;;;3.50;;
18206;SDS011;9229;52.354;20.886;2024-01-27T07:14:48;11.05;;;3.53;;
18206;SDS011;9229;52.354;20.886;2024-01-27T07:19:52;6.85;;;3.35;;
18206;SDS011;9229;52.354;20.886;2024-01-27T07:24:54;12.82;;;3.65;;
18206;SDS011;9229;52.354;20.886;2024-01-27T07:29:58;5.65;;;2.97;;
18206;SDS011;9229;52.354;20.886;2024-01-27T07:35:01;8.85;;;3.20;;
18206;SDS011;9229;52.354;20.886;2024-01-27T07:40:06;10.32;;;3.78;;
18206;SDS011;9229;52.354;20.886;2024-01-27T07:45:11;12.90;;;3.97;;
18206;SDS011;9229;52.354;20.886;2024-01-27T07:50:14;7.22;;;3.80;;
18206;SDS011;9229;52.354;20.886;2024-01-27T07:55:16;6.15;;;3.47;;
18206;SDS011;9229;52.354;20.886;2024-01-27T08:00:22;9.27;;;3.10;;
18206;SDS011;9229;52.354;20.886;2024-01-27T08:05:25;15.63;;;3.75;;
18206;SDS011;9229;52.354;20.886;2024-01-27T08:10:29;6.72;;;3.38;;
18206;SDS011;9229;52.354;20.886;2024-01-27T08:15:32;8.27;;;3.63;;
18206;SDS011;9229;52.354;20.886;2024-01-27T08:20:34;11.38;;;3.95;;
18206;SDS011;9229;52.354;20.886;2024-01-27T08:25:36;4.07;;;3.50;;
18206;SDS011;9229;52.354;20.886;2024-01-27T08:30:42;17.00;;;5.03;;
18206;SDS011;9229;52.354;20.886;2024-01-27T08:35:45;18.58;;;8.20;;
18206;SDS011;9229;52.354;20.886;2024-01-27T08:40:48;10.35;;;5.80;;
18206;SDS011;9229;52.354;20.886;2024-01-27T08:45:52;21.75;;;8.77;;
18206;SDS011;9229;52.354;20.886;2024-01-27T08:50:56;17.42;;;7.93;;
18206;SDS011;9229;52.354;20.886;2024-01-27T08:55:58;13.40;;;7.05;;
18206;SDS011;9229;52.354;20.886;2024-01-27T09:01:09;12.63;;;6.35;;
18206;SDS011;9229;52.354;20.886;2024-01-27T09:06:15;12.10;;;5.30;;
18206;SDS011;9229;52.354;20.886;2024-01-27T09:11:19;6.65;;;4.82;;
18206;SDS011;9229;52.354;20.886;2024-01-27T09:16:24;10.25;;;3.88;;
18206;SDS011;9229;52.354;20.886;2024-01-27T09:21:26;8.90;;;4.25;;
18206;SDS011;9229;52.354;20.886;2024-01-27T09:26:30;5.55;;;3.17;;
18206;SDS011;9229;52.354;20.886;2024-01-27T09:31:34;7.28;;;4.03;;
18206;SDS011;9229;52.354;20.886;2024-01-27T09:36:37;8.50;;;4.50;;
18206;SDS011;9229;52.354;20.886;2024-01-27T09:41:39;8.00;;;4.13;;
18206;SDS011;9229;52.354;20.886;2024-01-27T09:46:44;10.35;;;5.70;;
18206;SDS011;9229;52.354;20.886;2024-01-27T09:51:50;5.85;;;3.70;;
18206;SDS011;9229;52.354;20.886;2024-01-27T09:56:57;7.38;;;6.18;;
18206;SDS011;9229;52.354;20.886;2024-01-27T10:02:01;15.13;;;7.50;;
18206;SDS011;9229;52.354;20.886;2024-01-27T10:07:06;9.20;;;4.38;;
18206;SDS011;9229;52.354;20.886;2024-01-27T10:12:11;6.78;;;4.40;;
18206;SDS011;9229;52.354;20.886;2024-01-27T10:17:21;16.27;;;7.65;;
18206;SDS011;9229;52.354;20.886;2024-01-27T10:22:26;32.53;;;11.02;;
18206;SDS011;9229;52.354;20.886;2024-01-27T10:27:28;7.50;;;5.40;;
18206;SDS011;9229;52.354;20.886;2024-01-27T10:32:31;3.70;;;3.40;;
18206;SDS011;9229;52.354;20.886;2024-01-27T10:37:33;3.58;;;3.17;;
18206;SDS011;9229;52.354;20.886;2024-01-27T10:42:37;3.83;;;3.15;;
18206;SDS011;9229;52.354;20.886;2024-01-27T10:47:58;3.40;;;3.20;;
18206;SDS011;9229;52.354;20.886;2024-01-27T10:53:04;2.85;;;2.65;;
18206;SDS011;9229;52.354;20.886;2024-01-27T10:58:10;3.05;;;2.83;;
18206;SDS011;9229;52.354;20.886;2024-01-27T11:03:15;4.57;;;3.28;;
18206;SDS011;9229;52.354;20.886;2024-01-27T11:08:23;3.00;;;2.85;;
18206;SDS011;9229;52.354;20.886;2024-01-27T11:13:30;3.08;;;2.88;;
18206;SDS011;9229;52.354;20.886;2024-01-27T11:18:37;2.90;;;2.70;;
18206;SDS011;9229;52.354;20.886;2024-01-27T11:23:42;3.45;;;3.15;;
18206;SDS011;9229;52.354;20.886;2024-01-27T11:28:47;2.80;;;2.60;;
18206;SDS011;9229;52.354;20.886;2024-01-27T11:33:53;3.53;;;3.20;;
18206;SDS011;9229;52.354;20.886;2024-01-27T11:38:55;2.60;;;2.50;;
18206;SDS011;9229;52.354;20.886;2024-01-27T11:43:59;2.80;;;2.70;;
18206;SDS011;9229;52.354;20.886;2024-01-27T11:49:03;2.72;;;2.63;;
18206;SDS011;9229;52.354;20.886;2024-01-27T11:54:10;2.88;;;2.72;;
18206;SDS011;9229;52.354;20.886;2024-01-27T11:59:14;3.10;;;3.00;;
18206;SDS011;9229;52.354;20.886;2024-01-27T12:04:18;3.90;;;3.55;;
18206;SDS011;9229;52.354;20.886;2024-01-27T12:09:22;3.33;;;3.22;;
18206;SDS011;9229;52.354;20.886;2024-01-27T12:14:24;3.10;;;2.95;;
18206;SDS011;9229;52.354;20.886;2024-01-27T12:19:27;3.47;;;3.28;;
18206;SDS011;9229;52.354;20.886;2024-01-27T12:24:30;4.03;;;3.83;;
18206;SDS011;9229;52.354;20.886;2024-01-27T12:29:33;4.22;;;3.35;;
18206;SDS011;9229;52.354;20.886;2024-01-27T12:34:40;3.75;;;3.50;;
18206;SDS011;9229;52.354;20.886;2024-01-27T12:39:43;3.40;;;3.10;;
18206;SDS011;9229;52.354;20.886;2024-01-27T12:44:45;3.78;;;3.58;;
18206;SDS011;9229;52.354;20.886;2024-01-27T12:49:49;4.65;;;3.45;;
18206;SDS011;9229;52.354;20.886;2024-01-27T12:54:52;3.15;;;3.00;;
18206;SDS011;9229;52.354;20.886;2024-01-27T12:59:55;3.42;;;3.13;;
18206;SDS011;9229;52.354;20.886;2024-01-27T13:04:58;3.75;;;3.35;;
18206;SDS011;9229;52.354;20.886;2024-01-27T13:10:00;3.80;;;3.50;;
18206;SDS011;9229;52.354;20.886;2024-01-27T13:15:04;3.42;;;3.22;;
18206;SDS011;9229;52.354;20.886;2024-01-27T13:20:11;3.85;;;3.53;;
18206;SDS011;9229;52.354;20.886;2024-01-27T13:25:18;3.83;;;3.55;;
18206;SDS011;9229;52.354;20.886;2024-01-27T13:30:20;3.92;;;3.58;;
18206;SDS011;9229;52.354;20.886;2024-01-27T13:35:24;3.88;;;3.67;;
18206;SDS011;9229;52.354;20.886;2024-01-27T13:40:27;3.60;;;3.40;;
18206;SDS011;9229;52.354;20.886;2024-01-27T13:45:29;3.67;;;2.88;;
18206;SDS011;9229;52.354;20.886;2024-01-27T13:50:33;3.28;;;3.15;;
18206;SDS011;9229;52.354;20.886;2024-01-27T13:55:41;3.25;;;3.15;;
18206;SDS011;9229;52.354;20.886;2024-01-27T14:00:44;2.92;;;2.83;;
18206;SDS011;9229;52.354;20.886;2024-01-27T14:05:49;4.72;;;3.13;;
18206;SDS011;9229;52.354;20.886;2024-01-27T14:10:53;2.97;;;2.67;;
18206;SDS011;9229;52.354;20.886;2024-01-27T14:15:59;2.83;;;2.63;;
18206;SDS011;9229;52.354;20.886;2024-01-27T14:21:05;1.90;;;1.80;;
18206;SDS011;9229;52.354;20.886;2024-01-27T14:26:06;2.58;;;2.47;;
18206;SDS011;9229;52.354;20.886;2024-01-27T14:31:15;2.30;;;2.20;;
18206;SDS011;9229;52.354;20.886;2024-01-27T14:36:21;2.35;;;2.03;;
18206;SDS011;9229;52.354;20.886;2024-01-27T14:41:26;2.30;;;2.20;;
18206;SDS011;9229;52.354;20.886;2024-01-27T14:46:30;2.47;;;2.10;;
18206;SDS011;9229;52.354;20.886;2024-01-27T14:51:35;2.10;;;2.10;;
18206;SDS011;9229;52.354;20.886;2024-01-27T14:56:39;3.63;;;2.75;;
18206;SDS011;9229;52.354;20.886;2024-01-27T15:01:43;4.45;;;4.15;;
18206;SDS011;9229;52.354;20.886;2024-01-27T15:06:52;3.63;;;3.42;;
18206;SDS011;9229;52.354;20.886;2024-01-27T15:11:56;3.72;;;3.47;;
18206;SDS011;9229;52.354;20.886;2024-01-27T15:17:02;3.58;;;3.22;;
18206;SDS011;9229;52.354;20.886;2024-01-27T15:22:09;3.05;;;2.83;;
18206;SDS011;9229;52.354;20.886;2024-01-27T15:27:13;2.97;;;2.88;;
18206;SDS011;9229;52.354;20.886;2024-01-27T15:32:16;3.55;;;3.33;;
18206;SDS011;9229;52.354;20.886;2024-01-27T15:37:24;4.18;;;3.88;;
18206;SDS011;9229;52.354;20.886;2024-01-27T15:42:26;5.53;;;5.03;;
18206;SDS011;9229;52.354;20.886;2024-01-27T15:47:28;10.40;;;6.95;;
18206;SDS011;9229;52.354;20.886;2024-01-27T15:52:38;10.50;;;6.05;;
18206;SDS011;9229;52.354;20.886;2024-01-27T15:57:43;5.90;;;5.28;;
18206;SDS011;9229;52.354;20.886;2024-01-27T16:02:45;5.90;;;5.22;;
18206;SDS011;9229;52.354;20.886;2024-01-27T16:07:50;16.05;;;8.93;;
18206;SDS011;9229;52.354;20.886;2024-01-27T16:12:53;12.20;;;7.90;;
18206;SDS011;9229;52.354;20.886;2024-01-27T16:18:09;33.17;;;12.60;;
18206;SDS011;9229;52.354;20.886;2024-01-27T16:23:13;28.27;;;12.50;;
18206;SDS011;9229;52.354;20.886;2024-01-27T16:28:15;9.10;;;7.13;;
18206;SDS011;9229;52.354;20.886;2024-01-27T16:33:18;13.82;;;7.82;;
18206;SDS011;9229;52.354;20.886;2024-01-27T16:38:25;56.55;;;19.02;;
18206;SDS011;9229;52.354;20.886;2024-01-27T16:43:29;108.05;;;34.45;;
18206;SDS011;9229;52.354;20.886;2024-01-27T16:48:35;39.85;;;14.90;;
18206;SDS011;9229;52.354;20.886;2024-01-27T16:53:43;64.80;;;23.52;;
18206;SDS011;9229;52.354;20.886;2024-01-27T16:58:50;78.65;;;27.58;;
18206;SDS011;9229;52.354;20.886;2024-01-27T17:03:53;73.07;;;24.20;;
18206;SDS011;9229;52.354;20.886;2024-01-27T17:09:05;51.63;;;19.15;;
18206;SDS011;9229;52.354;20.886;2024-01-27T17:14:09;22.00;;;11.27;;
18206;SDS011;9229;52.354;20.886;2024-01-27T17:19:12;21.30;;;11.65;;
18206;SDS011;9229;52.354;20.886;2024-01-27T17:24:18;23.00;;;12.80;;
18206;SDS011;9229;52.354;20.886;2024-01-27T17:29:20;25.35;;;12.45;;
18206;SDS011;9229;52.354;20.886;2024-01-27T17:34:25;21.42;;;11.77;;
18206;SDS011;9229;52.354;20.886;2024-01-27T17:39:28;32.55;;;16.75;;
18206;SDS011;9229;52.354;20.886;2024-01-27T17:44:32;23.73;;;13.10;;
18206;SDS011;9229;52.354;20.886;2024-01-27T17:49:36;21.58;;;13.38;;
18206;SDS011;9229;52.354;20.886;2024-01-27T17:54:47;23.70;;;13.60;;
18206;SDS011;9229;52.354;20.886;2024-01-27T17:59:52;27.23;;;12.52;;
18206;SDS011;9229;52.354;20.886;2024-01-27T18:04:55;21.40;;;10.30;;
18206;SDS011;9229;52.354;20.886;2024-01-27T18:09:59;22.50;;;9.38;;
18206;SDS011;9229;52.354;20.886;2024-01-27T18:15:05;15.20;;;8.45;;
18206;SDS011;9229;52.354;20.886;2024-01-27T18:20:09;12.98;;;7.95;;
18206;SDS011;9229;52.354;20.886;2024-01-27T18:25:14;13.80;;;6.65;;
18206;SDS011;9229;52.354;20.886;2024-01-27T18:30:18;13.25;;;6.05;;
18206;SDS011;9229;52.354;20.886;2024-01-27T18:35:22;13.10;;;5.30;;
18206;SDS011;9229;52.354;20.886;2024-01-27T18:40:30;6.35;;;4.28;;
18206;SDS011;9229;52.354;20.886;2024-01-27T18:45:33;5.75;;;3.45;;
18206;SDS011;9229;52.354;20.886;2024-01-27T18:50:40;5.75;;;3.80;;
18206;SDS011;9229;52.354;20.886;2024-01-27T18:55:45;10.95;;;3.70;;
18206;SDS011;9229;52.354;20.886;2024-01-27T19:00:48;8.30;;;3.15;;
18206;SDS011;9229;52.354;20.886;2024-01-27T19:05:51;7.25;;;3.55;;
18206;SDS011;9229;52.354;20.886;2024-01-27T19:10:58;5.22;;;3.17;;
18206;SDS011;9229;52.354;20.886;2024-01-27T19:16:00;8.23;;;3.03;;
18206;SDS011;9229;52.354;20.886;2024-01-27T19:21:03;12.95;;;3.55;;
18206;SDS011;9229;52.354;20.886;2024-01-27T19:26:07;3.70;;;2.90;;
18206;SDS011;9229;52.354;20.886;2024-01-27T19:31:12;3.75;;;3.15;;
18206;SDS011;9229;52.354;20.886;2024-01-27T19:36:15;11.02;;;3.50;;
18206;SDS011;9229;52.354;20.886;2024-01-27T19:41:21;6.10;;;2.70;;
18206;SDS011;9229;52.354;20.886;2024-01-27T19:46:25;5.28;;;2.80;;
18206;SDS011;9229;52.354;20.886;2024-01-27T19:51:33;4.30;;;2.70;;
18206;SDS011;9229;52.354;20.886;2024-01-27T19:56:40;8.13;;;3.53;;
18206;SDS011;9229;52.354;20.886;2024-01-27T20:01:43;6.93;;;2.90;;
18206;SDS011;9229;52.354;20.886;2024-01-27T20:06:45;8.10;;;3.10;;
18206;SDS011;9229;52.354;20.886;2024-01-27T20:11:49;6.60;;;2.88;;
18206;SDS011;9229;52.354;20.886;2024-01-27T20:16:51;5.90;;;3.55;;
18206;SDS011;9229;52.354;20.886;2024-01-27T20:21:53;4.97;;;3.55;;
18206;SDS011;9229;52.354;20.886;2024-01-27T20:26:56;12.07;;;3.70;;
18206;SDS011;9229;52.354;20.886;2024-01-27T20:31:58;7.97;;;3.13;;
18206;SDS011;9229;52.354;20.886;2024-01-27T20:37:02;7.70;;;3.13;;
18206;SDS011;9229;52.354;20.886;2024-01-27T20:42:15;11.60;;;3.90;;
18206;SDS011;9229;52.354;20.886;2024-01-27T20:47:17;10.23;;;2.58;;
18206;SDS011;9229;52.354;20.886;2024-01-27T20:52:21;6.72;;;2.72;;
18206;SDS011;9229;52.354;20.886;2024-01-27T20:57:24;3.88;;;3.00;;
18206;SDS011;9229;52.354;20.886;2024-01-27T21:02:41;11.85;;;3.15;;
18206;SDS011;9229;52.354;20.886;2024-01-27T21:07:50;7.32;;;3.38;;
18206;SDS011;9229;52.354;20.886;2024-01-27T21:12:58;6.30;;;3.10;;
18206;SDS011;9229;52.354;20.886;2024-01-27T21:18:01;8.20;;;2.60;;
18206;SDS011;9229;52.354;20.886;2024-01-27T21:23:06;11.52;;;3.13;;
18206;SDS011;9229;52.354;20.886;2024-01-27T21:28:18;6.38;;;3.38;;
18206;SDS011;9229;52.354;20.886;2024-01-27T21:33:21;10.27;;;2.80;;
18206;SDS011;9229;52.354;20.886;2024-01-27T21:38:26;7.95;;;3.45;;
18206;SDS011;9229;52.354;20.886;2024-01-27T21:43:40;7.57;;;2.50;;
18206;SDS011;9229;52.354;20.886;2024-01-27T21:48:45;7.90;;;4.35;;
18206;SDS011;9229;52.354;20.886;2024-01-27T21:53:58;11.65;;;3.83;;
18206;SDS011;9229;52.354;20.886;2024-01-27T21:59:23;7.55;;;3.83;;
18206;SDS011;9229;52.354;20.886;2024-01-27T22:04:28;11.27;;;3.53;;
18206;SDS011;9229;52.354;20.886;2024-01-27T22:09:30;10.30;;;4.95;;
18206;SDS011;9229;52.354;20.886;2024-01-27T22:14:47;13.57;;;3.55;;
18206;SDS011;9229;52.354;20.886;2024-01-27T22:19:52;10.25;;;6.10;;
18206;SDS011;9229;52.354;20.886;2024-01-27T22:24:56;12.75;;;4.65;;
18206;SDS011;9229;52.354;20.886;2024-01-27T22:30:01;11.65;;;6.47;;
18206;SDS011;9229;52.354;20.886;2024-01-27T22:35:08;21.80;;;9.07;;
18206;SDS011;9229;52.354;20.886;2024-01-27T22:40:10;25.02;;;7.78;;
18206;SDS011;9229;52.354;20.886;2024-01-27T22:45:29;20.92;;;7.10;;
18206;SDS011;9229;52.354;20.886;2024-01-27T22:50:31;16.27;;;4.47;;
18206;SDS011;9229;52.354;20.886;2024-01-27T22:55:33;8.93;;;4.28;;
18206;SDS011;9229;52.354;20.886;2024-01-27T23:00:47;7.03;;;4.25;;
18206;SDS011;9229;52.354;20.886;2024-01-27T23:05:53;12.13;;;4.75;;
18206;SDS011;9229;52.354;20.886;2024-01-27T23:10:55;12.20;;;4.75;;
18206;SDS011;9229;52.354;20.886;2024-01-27T23:16:01;15.38;;;5.28;;
18206;SDS011;9229;52.354;20.886;2024-01-27T23:21:04;13.73;;;5.05;;
18206;SDS011;9229;52.354;20.886;2024-01-27T23:26:06;15.57;;;4.95;;
18206;SDS011;9229;52.354;20.886;2024-01-27T23:31:12;11.18;;;4.93;;
18206;SDS011;9229;52.354;20.886;2024-01-27T23:36:14;12.77;;;6.30;;
18206;SDS011;9229;52.354;20.886;2024-01-27T23:41:16;22.20;;;7.85;;
18206;SDS011;9229;52.354;20.886;2024-01-27T23:46:22;25.58;;;6.93;;
18206;SDS011;9229;52.354;20.886;2024-01-27T23:51:28;23.83;;;6.47;;
18206;SDS011;9229;52.354;20.886;2024-01-27T23:56:35;18.17;;;5.63;;
